Pontos — WDC8486 — position and weather

sailwx.info

Track history (hours):
 
Tides and Currents Weather Stations Pressure Air Temp Water Temp Dewpoint Dewpoint Depression Visibility Wind Speed Wind Dir Waves Ship Positions

Pontos

Owner: Pontos Fisheries, Inc., Montauk, NY. More information available from US FCC via Universal Licensing System and Coast Guard Vessel Documentation Center.

Last reported at 2017-Oct-10 12:48 UTC. Time now 2017-Oct-16 22:26 UTC.
Position N 38°58' W 074°53'.

Length 31 m.

Type: Fishing. MMSI: 367087860.

Date/timePositionNaut miles runAvg speedWind from/ knotsBaromVisibWave heightAir tempDewpointWater temp
2017-Oct-10 12:48N 38°58' W 074°53'0 0.0
2017-Oct-10 12:24N 38°58' W 074°53'0 0.0
2017-Oct-10 12:00N 38°58' W 074°53'0 0.0
2017-Oct-10 08:24N 38°58' W 074°53'0 0.0
2017-Oct-10 07:51N 38°58' W 074°53'0 0.0
2017-Oct-10 07:27N 38°58' W 074°53'0 0.0
2017-Oct-10 07:00N 38°58' W 074°53'0 0.0
2017-Oct-10 06:24N 38°58' W 074°53'0 0.0
2017-Oct-10 05:51N 38°58' W 074°53'0 0.0
2017-Oct-10 05:27N 38°58' W 074°53'0 0.0
2017-Oct-10 04:57N 38°58' W 074°53'  
2017-Oct-05 13:55N 39°30' W 073°01'2 4.8
2017-Oct-05 13:30N 39°32' W 072°60'2 1.4
2017-Oct-05 12:14N 39°30' W 072°60'1 3.5
2017-Oct-05 12:00N 39°31' W 072°60'1 0.3
2017-Oct-05 10:25N 39°32' W 072°60'2 4.6
2017-Oct-05 10:00N 39°33' W 072°58'1 0.6
2017-Oct-05 07:48N 39°34' W 072°57'1 4.8
2017-Oct-05 07:30N 39°34' W 072°55'3 4.7
2017-Oct-05 06:50N 39°35' W 072°51'1 0.6
2017-Oct-05 05:53N 39°34' W 072°52'6 3.9
2017-Oct-05 04:14N 39°33' W 072°60'1 4.9
2017-Oct-05 04:00N 39°32' W 073°00'0 0.4
2017-Oct-05 03:30N 39°31' W 073°00'3 0.9
2017-Oct-05 00:37N 39°33' W 072°58'  
2017-Oct-02 02:02N 39°38' W 073°57'1 7.0
2017-Oct-02 01:56N 39°38' W 073°58'3 6.8
2017-Oct-02 01:30N 39°39' W 074°02'3 6.8
2017-Oct-02 01:00N 39°40' W 074°06'4 7.5
2017-Oct-02 00:30N 39°37' W 074°09'  
Track history (hours):
 
Tides and Currents Weather Stations Pressure Air Temp Water Temp Dewpoint Dewpoint Depression Visibility Wind Speed Wind Dir Waves Ship Positions

Pontos

Owner: Pontos Fisheries, Inc., Montauk, NY. More information available from US FCC via Universal Licensing System and Coast Guard Vessel Documentation Center.

Last reported at 2017-Oct-10 12:48 UTC. Time now 2017-Oct-16 22:26 UTC.
Position N 38°58' W 074°53'.

Length 31 m.

Type: Fishing. MMSI: 367087860.

Date/timePositionNaut miles runAvg speedWind from/ knotsBaromVisibWave heightAir tempDewpointWater temp
2017-Oct-10 12:48N 38°58' W 074°53'0 0.0
2017-Oct-10 12:24N 38°58' W 074°53'0 0.0
2017-Oct-10 12:00N 38°58' W 074°53'0 0.0
2017-Oct-10 08:24N 38°58' W 074°53'0 0.0
2017-Oct-10 07:51N 38°58' W 074°53'0 0.0
2017-Oct-10 07:27N 38°58' W 074°53'0 0.0
2017-Oct-10 07:00N 38°58' W 074°53'0 0.0
2017-Oct-10 06:24N 38°58' W 074°53'0 0.0
2017-Oct-10 05:51N 38°58' W 074°53'0 0.0
2017-Oct-10 05:27N 38°58' W 074°53'0 0.0
2017-Oct-10 04:57N 38°58' W 074°53'  
2017-Oct-05 13:55N 39°30' W 073°01'2 4.8
2017-Oct-05 13:30N 39°32' W 072°60'2 1.4
2017-Oct-05 12:14N 39°30' W 072°60'1 3.5
2017-Oct-05 12:00N 39°31' W 072°60'1 0.3
2017-Oct-05 10:25N 39°32' W 072°60'2 4.6
2017-Oct-05 10:00N 39°33' W 072°58'1 0.6
2017-Oct-05 07:48N 39°34' W 072°57'1 4.8
2017-Oct-05 07:30N 39°34' W 072°55'3 4.7
2017-Oct-05 06:50N 39°35' W 072°51'1 0.6
2017-Oct-05 05:53N 39°34' W 072°52'6 3.9
2017-Oct-05 04:14N 39°33' W 072°60'1 4.9
2017-Oct-05 04:00N 39°32' W 073°00'0 0.4
2017-Oct-05 03:30N 39°31' W 073°00'3 0.9
2017-Oct-05 00:37N 39°33' W 072°58'  
2017-Oct-02 02:02N 39°38' W 073°57'1 7.0
2017-Oct-02 01:56N 39°38' W 073°58'3 6.8
2017-Oct-02 01:30N 39°39' W 074°02'3 6.8
2017-Oct-02 01:00N 39°40' W 074°06'4 7.5
2017-Oct-02 00:30N 39°37' W 074°09'  

Dump ship's entire track history